Time;durP1;ratioP1;P1;durP2;ratioP2;P2;SDS_P1;SDS_P2;PMS_P1;PMS_P2;Temp;Humidity;BMP_temperature;BMP_pressure;BME280_temperature;BME280_humidity;BME280_pressure;Samples;Min_cycle;Max_cycle;Signal;HPM_P1;HPM_P2
2022/01/27 00:03:29;;;;;;;36.35;20.55;;;;;;;;;;10213513;28;20081;-61
2022/01/27 00:08:31;;;;;;;38.97;23.80;;;;;;;;;;10239688;28;20069;-61
2022/01/27 00:13:32;;;;;;;38.28;23.13;;;;;;;;;;10238923;28;20072;-62
2022/01/27 00:18:30;;;;;;;48.60;24.38;;;;;;;;;;10235948;28;20072;-60
2022/01/27 00:23:29;;;;;;;42.15;22.80;;;;;;;;;;10233023;28;20065;-60
2022/01/27 00:28:27;;;;;;;36.47;22.92;;;;;;;;;;10236911;28;20065;-61
2022/01/27 00:33:27;;;;;;;41.20;22.45;;;;;;;;;;10234059;28;20072;-60
2022/01/27 00:38:25;;;;;;;43.38;23.98;;;;;;;;;;10231386;28;20077;-60
2022/01/27 00:43:24;;;;;;;42.95;23.75;;;;;;;;;;10233939;28;20495;-60
2022/01/27 00:48:22;;;;;;;41.70;23.85;;;;;;;;;;10233681;28;20068;-60
2022/01/27 00:53:31;;;;;;;40.60;23.00;;;;;;;;;;10233067;28;20087;-60
2022/01/27 00:58:43;;;;;;;39.33;23.23;;;;;;;;;;10233915;28;20483;-62
2022/01/27 01:03:46;;;;;;;37.60;23.90;;;;;;;;;;10236256;28;20076;-60
2022/01/27 01:19:25;;;;;;;31.40;20.58;;;;;;;;;;10230614;28;20073;-60
2022/01/27 01:29:55;;;;;;;36.38;20.95;;;;;;;;;;10233892;28;20064;-60
2022/01/27 01:34:54;;;;;;;34.80;21.20;;;;;;;;;;10232064;28;20107;-60
2022/01/27 01:39:54;;;;;;;35.70;20.50;;;;;;;;;;10229694;28;20080;-60
2022/01/27 01:44:53;;;;;;;38.00;22.00;;;;;;;;;;10232423;28;20065;-60
2022/01/27 01:49:52;;;;;;;41.45;23.20;;;;;;;;;;10232011;28;20060;-61
2022/01/27 01:54:50;;;;;;;38.13;23.17;;;;;;;;;;10234658;28;20514;-61
2022/01/27 01:59:50;;;;;;;33.88;19.77;;;;;;;;;;10230122;28;20279;-60
2022/01/27 02:04:48;;;;;;;36.60;22.95;;;;;;;;;;10230972;28;20061;-60
2022/01/27 02:10:03;;;;;;;52.17;24.77;;;;;;;;;;10230427;28;20084;-61
2022/01/27 02:20:21;;;;;;;95.85;47.15;;;;;;;;;;10225231;28;20553;-60
2022/01/27 02:25:19;;;;;;;61.53;30.48;;;;;;;;;;10228835;28;20073;-61
2022/01/27 02:30:17;;;;;;;55.60;31.35;;;;;;;;;;10230821;28;20065;-61
2022/01/27 02:35:16;;;;;;;47.03;27.80;;;;;;;;;;10231008;28;20485;-61
2022/01/27 02:40:19;;;;;;;35.50;21.98;;;;;;;;;;10227610;28;20444;-61
2022/01/27 02:45:19;;;;;;;37.33;23.67;;;;;;;;;;10229523;28;20152;-61
2022/01/27 02:50:18;;;;;;;38.17;22.67;;;;;;;;;;10229546;28;20076;-60
2022/01/27 02:55:18;;;;;;;34.83;22.40;;;;;;;;;;10227349;28;20084;-61
2022/01/27 03:00:17;;;;;;;38.38;23.25;;;;;;;;;;10226030;28;20580;-61
2022/01/27 03:05:15;;;;;;;40.55;24.17;;;;;;;;;;10227147;28;20080;-61
2022/01/27 03:10:13;;;;;;;41.70;25.40;;;;;;;;;;10227184;28;20460;-60
2022/01/27 03:15:13;;;;;;;41.67;23.55;;;;;;;;;;10228460;28;20553;-60
2022/01/27 03:20:12;;;;;;;86.70;44.33;;;;;;;;;;10225625;28;20081;-60
2022/01/27 03:25:11;;;;;;;106.22;50.38;;;;;;;;;;10229916;28;20092;-61
2022/01/27 03:30:10;;;;;;;65.13;36.15;;;;;;;;;;10225356;28;20115;-61
2022/01/27 03:35:10;;;;;;;68.30;38.20;;;;;;;;;;10225969;28;20537;-61
2022/01/27 03:40:09;;;;;;;60.47;34.50;;;;;;;;;;10226464;28;20515;-61
2022/01/27 03:45:08;;;;;;;53.22;33.05;;;;;;;;;;10228745;28;20079;-61
2022/01/27 03:50:07;;;;;;;63.63;34.60;;;;;;;;;;10240646;28;20488;-61
2022/01/27 03:55:08;;;;;;;52.50;32.75;;;;;;;;;;10236478;28;20388;-61
2022/01/27 04:00:07;;;;;;;43.20;26.50;;;;;;;;;;10235490;28;20081;-61
2022/01/27 04:05:11;;;;;;;46.17;26.58;;;;;;;;;;10236673;28;20089;-61
2022/01/27 04:10:11;;;;;;;40.40;23.13;;;;;;;;;;10236372;28;20069;-62
2022/01/27 04:15:10;;;;;;;42.45;23.48;;;;;;;;;;10231160;28;20077;-59
2022/01/27 04:20:09;;;;;;;35.15;21.42;;;;;;;;;;10229022;28;20235;-60
2022/01/27 04:25:07;;;;;;;39.72;22.27;;;;;;;;;;10228676;28;20475;-60
2022/01/27 04:30:13;;;;;;;40.17;22.50;;;;;;;;;;10230801;28;20061;-61
2022/01/27 04:35:15;;;;;;;45.22;24.88;;;;;;;;;;10231677;28;20177;-61
2022/01/27 04:40:16;;;;;;;56.95;34.15;;;;;;;;;;10232034;28;20073;-61
2022/01/27 04:45:17;;;;;;;52.67;29.90;;;;;;;;;;10232836;28;20080;-61
2022/01/27 04:50:16;;;;;;;60.75;32.22;;;;;;;;;;10230187;28;20467;-61
2022/01/27 04:55:16;;;;;;;38.95;24.40;;;;;;;;;;10232593;28;20080;-61
2022/01/27 05:00:18;;;;;;;46.83;26.10;;;;;;;;;;10231858;28;20093;-61
2022/01/27 05:05:17;;;;;;;51.85;30.80;;;;;;;;;;10233815;28;20463;-61
2022/01/27 05:10:22;;;;;;;58.75;32.22;;;;;;;;;;10232936;28;20091;-61
2022/01/27 05:15:23;;;;;;;38.08;24.30;;;;;;;;;;10234962;28;20081;-60
2022/01/27 05:20:22;;;;;;;42.42;26.38;;;;;;;;;;10233019;28;20534;-60
2022/01/27 05:25:20;;;;;;;45.15;26.33;;;;;;;;;;10228231;28;20072;-60
2022/01/27 05:30:18;;;;;;;46.92;24.25;;;;;;;;;;10233023;28;20444;-60
2022/01/27 05:35:18;;;;;;;62.30;36.17;;;;;;;;;;10236840;28;20088;-61
2022/01/27 05:40:16;;;;;;;53.50;30.15;;;;;;;;;;10232921;28;20080;-61
2022/01/27 05:45:15;;;;;;;46.78;28.73;;;;;;;;;;10231820;28;20137;-60
2022/01/27 05:50:13;;;;;;;48.15;29.42;;;;;;;;;;10232772;28;20511;-60
2022/01/27 05:55:13;;;;;;;48.55;30.65;;;;;;;;;;10232309;28;20083;-60
2022/01/27 06:00:11;;;;;;;38.80;24.83;;;;;;;;;;10227940;28;20294;-61
2022/01/27 06:05:10;;;;;;;38.88;25.85;;;;;;;;;;10222668;28;20091;-62
2022/01/27 06:10:09;;;;;;;44.15;27.80;;;;;;;;;;10229824;28;20072;-61
2022/01/27 06:15:09;;;;;;;40.13;26.15;;;;;;;;;;10231561;28;20075;-60
2022/01/27 06:20:08;;;;;;;48.15;29.23;;;;;;;;;;10232649;28;20072;-61
2022/01/27 06:25:07;;;;;;;38.90;26.27;;;;;;;;;;10232777;28;20061;-61
2022/01/27 06:30:06;;;;;;;63.53;36.85;;;;;;;;;;10231552;28;20080;-61
2022/01/27 06:35:07;;;;;;;55.25;33.15;;;;;;;;;;10232600;28;20087;-60
2022/01/27 06:40:06;;;;;;;56.03;37.67;;;;;;;;;;10230101;28;20508;-60
2022/01/27 06:45:05;;;;;;;48.55;32.55;;;;;;;;;;10227410;28;20076;-60
2022/01/27 06:50:04;;;;;;;43.05;27.38;;;;;;;;;;10228919;28;20525;-60
2022/01/27 06:55:05;;;;;;;52.05;33.65;;;;;;;;;;10231864;28;20069;-61
2022/01/27 07:00:07;;;;;;;52.35;33.63;;;;;;;;;;10227900;28;20057;-60
2022/01/27 07:05:05;;;;;;;51.20;34.65;;;;;;;;;;10226269;28;20069;-60
2022/01/27 07:10:06;;;;;;;37.53;26.48;;;;;;;;;;10229616;28;20069;-60
2022/01/27 07:15:07;;;;;;;40.90;27.05;;;;;;;;;;10227986;28;20072;-61
2022/01/27 07:20:08;;;;;;;40.05;26.50;;;;;;;;;;10227299;28;20451;-60
2022/01/27 07:25:08;;;;;;;49.25;29.90;;;;;;;;;;10239865;28;20073;-60
2022/01/27 07:30:07;;;;;;;40.30;26.98;;;;;;;;;;10241946;28;20066;-60
2022/01/27 07:35:06;;;;;;;51.15;31.73;;;;;;;;;;10236460;28;20065;-60
2022/01/27 07:40:05;;;;;;;43.55;29.38;;;;;;;;;;10236527;28;20065;-60
2022/01/27 07:45:05;;;;;;;63.38;38.10;;;;;;;;;;10236498;28;20077;-61
2022/01/27 07:50:03;;;;;;;57.05;33.20;;;;;;;;;;10235035;28;20127;-60
2022/01/27 07:55:01;;;;;;;83.65;47.50;;;;;;;;;;10236059;28;20076;-60
2022/01/27 08:00:00;;;;;;;89.32;51.00;;;;;;;;;;10233906;28;20069;-59
2022/01/27 08:05:00;;;;;;;58.25;35.95;;;;;;;;;;10235497;28;20073;-60
2022/01/27 08:09:58;;;;;;;47.25;30.33;;;;;;;;;;10234830;28;20065;-60
2022/01/27 08:14:56;;;;;;;42.60;27.95;;;;;;;;;;10236706;28;20502;-61
2022/01/27 08:19:54;;;;;;;48.97;27.83;;;;;;;;;;10236803;28;20061;-60
2022/01/27 08:24:54;;;;;;;121.57;72.90;;;;;;;;;;10236443;28;20091;-60
2022/01/27 08:29:58;;;;;;;101.45;56.50;;;;;;;;;;10232386;28;20073;-60
2022/01/27 08:34:56;;;;;;;98.63;51.65;;;;;;;;;;10235056;28;20068;-60
2022/01/27 08:39:56;;;;;;;41.22;27.10;;;;;;;;;;10233702;28;20522;-61
2022/01/27 08:44:54;;;;;;;40.38;28.67;;;;;;;;;;10230616;28;20076;-61
2022/01/27 08:49:53;;;;;;;37.67;25.50;;;;;;;;;;10234474;28;20286;-61
2022/01/27 08:54:51;;;;;;;36.90;23.33;;;;;;;;;;10234419;28;20077;-61
2022/01/27 08:59:57;;;;;;;32.40;22.10;;;;;;;;;;10234197;28;20068;-60
2022/01/27 09:04:55;;;;;;;32.85;23.00;;;;;;;;;;10235526;28;20450;-61
2022/01/27 09:09:53;;;;;;;34.05;22.35;;;;;;;;;;10234939;28;20069;-60
2022/01/27 09:14:52;;;;;;;26.52;19.00;;;;;;;;;;10229647;28;20064;-61
2022/01/27 09:19:51;;;;;;;30.65;20.58;;;;;;;;;;10228532;28;20065;-61
2022/01/27 09:24:55;;;;;;;25.48;18.50;;;;;;;;;;10231046;28;20072;-62
2022/01/27 09:29:53;;;;;;;30.30;18.98;;;;;;;;;;10231449;28;20779;-62
2022/01/27 09:34:53;;;;;;;24.30;18.30;;;;;;;;;;10229368;28;20072;-63
2022/01/27 09:39:52;;;;;;;26.55;17.48;;;;;;;;;;10230282;28;20077;-63
2022/01/27 09:44:53;;;;;;;21.25;15.75;;;;;;;;;;10228457;28;20076;-63
2022/01/27 09:49:54;;;;;;;27.25;19.33;;;;;;;;;;10230621;28;20069;-63
2022/01/27 09:54:54;;;;;;;31.42;23.70;;;;;;;;;;10231011;28;20620;-63
2022/01/27 09:59:52;;;;;;;29.30;22.05;;;;;;;;;;10233393;28;20069;-63
2022/01/27 10:04:51;;;;;;;29.00;18.08;;;;;;;;;;10233631;28;20065;-62
2022/01/27 10:09:58;;;;;;;54.42;33.45;;;;;;;;;;10233158;28;20080;-64
2022/01/27 10:15:01;;;;;;;88.22;44.30;;;;;;;;;;10231375;28;20601;-64
2022/01/27 10:19:59;;;;;;;27.08;19.92;;;;;;;;;;10226946;28;20092;-66
2022/01/27 10:25:08;;;;;;;23.42;16.95;;;;;;;;;;10228198;28;20135;-65
2022/01/27 10:35:25;;;;;;;29.83;21.10;;;;;;;;;;10231622;28;20073;-62
2022/01/27 10:40:26;;;;;;;25.80;18.83;;;;;;;;;;10245471;28;20087;-63
2022/01/27 10:45:24;;;;;;;20.85;14.90;;;;;;;;;;10230463;28;20085;-63
2022/01/27 10:50:23;;;;;;;20.77;16.00;;;;;;;;;;10231136;28;20065;-63
2022/01/27 10:55:22;;;;;;;22.58;17.50;;;;;;;;;;10242794;28;20541;-62
2022/01/27 11:00:22;;;;;;;23.67;16.58;;;;;;;;;;10236132;28;20095;-62
2022/01/27 11:05:21;;;;;;;16.08;12.88;;;;;;;;;;10238303;28;20080;-63
2022/01/27 11:10:21;;;;;;;23.90;17.33;;;;;;;;;;10238318;28;20069;-62
2022/01/27 11:15:21;;;;;;;21.95;17.27;;;;;;;;;;10239379;28;20088;-62
2022/01/27 11:20:27;;;;;;;24.50;16.23;;;;;;;;;;10239369;28;20077;-64
2022/01/27 11:30:49;;;;;;;31.73;22.83;;;;;;;;;;10236322;28;20092;-64
2022/01/27 11:36:05;;;;;;;21.65;17.48;;;;;;;;;;10238983;28;20069;-64
2022/01/27 11:41:03;;;;;;;;;;;;;;;;;;10235846;28;20061;-64
2022/01/27 11:46:14;;;;;;;19.63;13.65;;;;;;;;;;10241548;28;19968;-63
2022/01/27 11:51:15;;;;;;;36.35;24.52;;;;;;;;;;10239583;28;20088;-64
2022/01/27 11:56:29;;;;;;;32.38;24.02;;;;;;;;;;10240970;28;20075;-65
2022/01/27 12:01:28;;;;;;;34.03;22.45;;;;;;;;;;10237674;28;20739;-64
2022/01/27 12:06:28;;;;;;;41.67;26.10;;;;;;;;;;10236037;28;20073;-63
2022/01/27 12:11:46;;;;;;;32.25;24.25;;;;;;;;;;10237195;28;20065;-63
2022/01/27 12:16:56;;;;;;;25.75;19.55;;;;;;;;;;10239110;28;20069;-64
2022/01/27 12:21:59;;;;;;;23.27;14.75;;;;;;;;;;10235881;28;20100;-63
2022/01/27 12:26:59;;;;;;;21.52;15.77;;;;;;;;;;10233834;28;20077;-63
2022/01/27 12:31:59;;;;;;;19.92;14.55;;;;;;;;;;10245702;28;20475;-62
2022/01/27 12:37:01;;;;;;;28.02;18.58;;;;;;;;;;10236282;28;21043;-63
2022/01/27 12:42:00;;;;;;;20.02;15.32;;;;;;;;;;10237119;28;20489;-63
2022/01/27 12:47:02;;;;;;;19.15;14.70;;;;;;;;;;10236220;28;20072;-63
2022/01/27 12:52:06;;;;;;;22.73;14.00;;;;;;;;;;10236875;28;20104;-63
2022/01/27 12:57:04;;;;;;;25.77;17.75;;;;;;;;;;10238499;28;20081;-64
2022/01/27 13:02:04;;;;;;;22.85;15.07;;;;;;;;;;10234775;28;20443;-64
2022/01/27 13:07:04;;;;;;;18.65;13.05;;;;;;;;;;10234285;28;20076;-63
2022/01/27 13:12:15;;;;;;;23.55;15.43;;;;;;;;;;10232771;28;20076;-64
2022/01/27 13:17:18;;;;;;;18.20;12.90;;;;;;;;;;10247121;28;20041;-64
2022/01/27 13:22:26;;;;;;;23.45;16.05;;;;;;;;;;10235965;28;20080;-63
2022/01/27 13:27:25;;;;;;;15.23;11.70;;;;;;;;;;10233757;28;20119;-63
2022/01/27 13:32:23;;;;;;;20.70;14.15;;;;;;;;;;10235251;28;20065;-65
2022/01/27 13:37:29;;;;;;;39.53;26.17;;;;;;;;;;10238224;28;20076;-65
2022/01/27 13:42:29;;;;;;;23.23;14.25;;;;;;;;;;10238147;28;20045;-64
2022/01/27 13:47:28;;;;;;;27.70;18.70;;;;;;;;;;10252181;28;20045;-64
2022/01/27 13:52:27;;;;;;;22.88;14.43;;;;;;;;;;10232808;28;20432;-65
2022/01/27 13:57:35;;;;;;;18.40;12.10;;;;;;;;;;10235209;28;20065;-64
2022/01/27 14:02:34;;;;;;;24.63;17.05;;;;;;;;;;10233689;28;20108;-63
2022/01/27 14:07:34;;;;;;;18.30;13.77;;;;;;;;;;10233086;28;20080;-63
2022/01/27 14:12:46;;;;;;;31.10;21.73;;;;;;;;;;10234104;28;20415;-63
2022/01/27 14:17:55;;;;;;;17.80;14.15;;;;;;;;;;10232899;28;20061;-64
2022/01/27 14:23:15;;;;;;;17.83;14.07;;;;;;;;;;10233887;28;20242;-65
2022/01/27 14:28:14;;;;;;;22.80;13.90;;;;;;;;;;10234369;28;20522;-64
2022/01/27 14:33:13;;;;;;;33.10;20.98;;;;;;;;;;10230691;28;20077;-64
2022/01/27 14:38:11;;;;;;;29.88;20.92;;;;;;;;;;10232443;28;20566;-64
2022/01/27 14:43:12;;;;;;;65.30;36.60;;;;;;;;;;10232671;28;20492;-64
2022/01/27 14:48:12;;;;;;;33.63;22.67;;;;;;;;;;10235042;28;20080;-64
2022/01/27 14:53:10;;;;;;;43.53;27.13;;;;;;;;;;10232414;28;20076;-64
2022/01/27 14:58:09;;;;;;;30.02;18.67;;;;;;;;;;10232084;28;20064;-64
2022/01/27 15:03:07;;;;;;;48.25;26.25;;;;;;;;;;10232197;28;20076;-64
2022/01/27 15:08:07;;;;;;;47.40;30.48;;;;;;;;;;10233877;28;20507;-64
2022/01/27 15:13:09;;;;;;;47.83;32.55;;;;;;;;;;10237376;28;20492;-64
2022/01/27 15:23:26;;;;;;;36.85;25.20;;;;;;;;;;10233058;28;20487;-64
2022/01/27 15:28:25;;;;;;;39.20;26.70;;;;;;;;;;10236149;28;20561;-64
2022/01/27 15:33:23;;;;;;;37.72;27.42;;;;;;;;;;10232331;28;20460;-64
2022/01/27 15:38:23;;;;;;;48.33;31.40;;;;;;;;;;10230878;28;20077;-64
2022/01/27 15:43:23;;;;;;;35.65;24.17;;;;;;;;;;10230573;28;20077;-64
2022/01/27 15:48:22;;;;;;;47.95;32.28;;;;;;;;;;10235592;28;20084;-64
2022/01/27 15:53:20;;;;;;;50.22;32.10;;;;;;;;;;10253040;28;20184;-64
2022/01/27 15:58:19;;;;;;;40.58;26.98;;;;;;;;;;10255725;28;20484;-65
2022/01/27 16:03:18;;;;;;;42.03;27.10;;;;;;;;;;10224508;28;20073;-65
2022/01/27 16:08:17;;;;;;;34.95;25.00;;;;;;;;;;10241652;28;20077;-66
2022/01/27 16:13:15;;;;;;;30.02;20.25;;;;;;;;;;10232326;28;20065;-65
2022/01/27 16:18:13;;;;;;;40.28;28.45;;;;;;;;;;10228381;28;20450;-65
2022/01/27 16:23:13;;;;;;;36.03;24.70;;;;;;;;;;10246803;28;20076;-65
2022/01/27 16:28:11;;;;;;;60.58;34.70;;;;;;;;;;10244775;28;20072;-65
2022/01/27 16:33:14;;;;;;;50.53;25.83;;;;;;;;;;10252620;28;20061;-65
2022/01/27 16:38:13;;;;;;;47.92;28.38;;;;;;;;;;10248262;28;20088;-66
2022/01/27 16:43:13;;;;;;;38.90;25.70;;;;;;;;;;10246744;28;20080;-66
2022/01/27 16:48:12;;;;;;;38.88;25.80;;;;;;;;;;10236830;28;20087;-65
2022/01/27 16:53:10;;;;;;;39.45;26.50;;;;;;;;;;10240030;28;20523;-65
2022/01/27 16:58:10;;;;;;;28.88;19.45;;;;;;;;;;10228836;28;20104;-66
2022/01/27 17:03:08;;;;;;;39.08;25.23;;;;;;;;;;10231949;28;20517;-66
2022/01/27 17:08:06;;;;;;;35.75;24.15;;;;;;;;;;10235184;28;20072;-66
2022/01/27 17:13:05;;;;;;;32.17;21.83;;;;;;;;;;10236231;28;20061;-66
2022/01/27 17:18:07;;;;;;;35.08;23.75;;;;;;;;;;10235633;28;20069;-65
2022/01/27 17:23:05;;;;;;;50.35;35.17;;;;;;;;;;10232417;28;20076;-66
2022/01/27 17:28:03;;;;;;;46.78;29.63;;;;;;;;;;10226200;28;20069;-66
2022/01/27 17:33:10;;;;;;;51.73;34.80;;;;;;;;;;10788618;22;21007;-60
2022/01/27 17:38:10;;;;;;;46.95;31.52;;;;;;;;;;10826610;22;20077;-64
2022/01/27 17:43:17;;;;;;;71.20;45.22;;;;;;;;;;10217824;28;20065;-64
2022/01/27 17:48:17;;;;;;;54.17;34.80;;;;;;;;;;10201871;28;20085;-63
2022/01/27 17:53:15;;;;;;;43.17;28.73;;;;;;;;;;10218431;28;20065;-64
2022/01/27 17:58:13;;;;;;;61.80;36.72;;;;;;;;;;10200409;28;20438;-64
2022/01/27 18:03:11;;;;;;;65.40;37.80;;;;;;;;;;10198918;28;20116;-64
2022/01/27 18:08:11;;;;;;;61.00;35.83;;;;;;;;;;10214876;28;20077;-64
2022/01/27 18:13:10;;;;;;;53.70;32.92;;;;;;;;;;10190439;28;20101;-63
2022/01/27 18:18:08;;;;;;;49.03;32.00;;;;;;;;;;10191999;28;20120;-63
2022/01/27 18:23:07;;;;;;;77.95;40.40;;;;;;;;;;10204893;28;20616;-63
2022/01/27 18:28:06;;;;;;;45.30;24.60;;;;;;;;;;10206703;28;20077;-63
2022/01/27 18:33:05;;;;;;;40.45;27.30;;;;;;;;;;10197786;28;20505;-63
2022/01/27 18:38:03;;;;;;;35.10;21.30;;;;;;;;;;10184865;28;20542;-63
2022/01/27 18:43:01;;;;;;;43.15;26.42;;;;;;;;;;10206774;28;20427;-64
2022/01/27 18:48:02;;;;;;;37.75;24.90;;;;;;;;;;10197225;28;20069;-63
2022/01/27 18:53:00;;;;;;;38.15;25.65;;;;;;;;;;10208531;28;20467;-63
2022/01/27 18:57:58;;;;;;;41.63;27.30;;;;;;;;;;10190934;28;20489;-63
2022/01/27 19:02:56;;;;;;;29.67;19.40;;;;;;;;;;10193320;28;20466;-63
2022/01/27 19:07:56;;;;;;;30.42;21.25;;;;;;;;;;10200901;28;20077;-63
2022/01/27 19:12:55;;;;;;;29.52;19.25;;;;;;;;;;10194490;28;20073;-63
2022/01/27 19:17:54;;;;;;;32.75;21.52;;;;;;;;;;10207734;28;20069;-63
2022/01/27 19:22:53;;;;;;;29.50;20.10;;;;;;;;;;10218058;28;20470;-63
2022/01/27 19:27:53;;;;;;;28.23;19.35;;;;;;;;;;10203155;28;20084;-63
2022/01/27 19:32:54;;;;;;;27.13;19.00;;;;;;;;;;10216826;28;20473;-63
2022/01/27 19:37:52;;;;;;;26.50;17.70;;;;;;;;;;10209208;28;20089;-63
2022/01/27 19:42:52;;;;;;;26.77;20.60;;;;;;;;;;10215571;28;20502;-62
2022/01/27 19:47:52;;;;;;;44.67;27.77;;;;;;;;;;10196058;28;21323;-62
2022/01/27 19:52:53;;;;;;;41.20;28.05;;;;;;;;;;10207563;28;20069;-62
2022/01/27 19:57:52;;;;;;;35.88;22.00;;;;;;;;;;10213552;28;20128;-61
2022/01/27 20:02:52;;;;;;;40.38;25.42;;;;;;;;;;10203057;28;20074;-62
2022/01/27 20:07:51;;;;;;;29.13;17.45;;;;;;;;;;10208585;28;20094;-64
2022/01/27 20:12:50;;;;;;;26.42;16.63;;;;;;;;;;10221197;28;20145;-63
2022/01/27 20:17:49;;;;;;;29.98;19.80;;;;;;;;;;10209287;28;20454;-61
2022/01/27 20:22:48;;;;;;;33.17;18.92;;;;;;;;;;10194975;28;20444;-62
2022/01/27 20:27:47;;;;;;;28.92;20.00;;;;;;;;;;10197290;28;20120;-61
2022/01/27 20:32:49;;;;;;;24.38;16.95;;;;;;;;;;10202789;28;20070;-63
2022/01/27 20:37:49;;;;;;;38.72;23.42;;;;;;;;;;10216948;28;20069;-63
2022/01/27 20:42:47;;;;;;;25.58;15.23;;;;;;;;;;10205824;28;20071;-63
2022/01/27 20:47:45;;;;;;;21.88;14.73;;;;;;;;;;10206822;28;20080;-62
2022/01/27 20:52:46;;;;;;;36.95;21.88;;;;;;;;;;10199722;28;20067;-63
2022/01/27 20:57:45;;;;;;;76.88;38.20;;;;;;;;;;10199368;28;20068;-62
2022/01/27 21:02:44;;;;;;;33.97;20.48;;;;;;;;;;10214540;28;20069;-63
2022/01/27 21:07:43;;;;;;;28.48;17.00;;;;;;;;;;10216957;28;20199;-63
2022/01/27 21:12:41;;;;;;;36.00;18.92;;;;;;;;;;10215089;28;20064;-62
2022/01/27 21:17:41;;;;;;;29.25;17.23;;;;;;;;;;10201020;28;20117;-62
2022/01/27 21:22:40;;;;;;;32.05;18.73;;;;;;;;;;10191711;28;20073;-64
2022/01/27 21:27:39;;;;;;;41.03;22.40;;;;;;;;;;10206691;28;20600;-63
2022/01/27 21:32:38;;;;;;;61.85;30.10;;;;;;;;;;10209373;28;20331;-62
2022/01/27 21:37:37;;;;;;;91.18;44.47;;;;;;;;;;10224519;28;20053;-63
2022/01/27 21:42:36;;;;;;;25.02;16.58;;;;;;;;;;10217695;28;20061;-64
2022/01/27 21:47:34;;;;;;;53.90;26.80;;;;;;;;;;10214959;28;20140;-63
2022/01/27 21:52:33;;;;;;;41.88;22.10;;;;;;;;;;10223499;28;20065;-63
2022/01/27 21:57:35;;;;;;;23.17;15.45;;;;;;;;;;10221946;28;20065;-63
2022/01/27 22:02:33;;;;;;;28.88;19.40;;;;;;;;;;10217213;28;20065;-63
2022/01/27 22:07:31;;;;;;;24.17;17.20;;;;;;;;;;10220871;28;20077;-63
2022/01/27 22:12:30;;;;;;;36.30;22.40;;;;;;;;;;10224971;28;20080;-63
2022/01/27 22:17:29;;;;;;;89.32;49.85;;;;;;;;;;10217259;28;20061;-63
2022/01/27 22:22:34;;;;;;;76.13;40.45;;;;;;;;;;10218499;28;20069;-63
2022/01/27 22:27:32;;;;;;;36.28;21.75;;;;;;;;;;10209818;28;20073;-63
2022/01/27 22:32:32;;;;;;;96.30;48.03;;;;;;;;;;10223735;28;20506;-63
2022/01/27 22:37:30;;;;;;;96.05;51.00;;;;;;;;;;10210701;28;20081;-62
2022/01/27 22:42:29;;;;;;;46.20;28.27;;;;;;;;;;10189932;28;20511;-63
2022/01/27 22:47:27;;;;;;;45.13;28.88;;;;;;;;;;10189546;28;20081;-64
2022/01/27 22:52:27;;;;;;;79.20;38.22;;;;;;;;;;10187921;28;20049;-63
2022/01/27 22:57:25;;;;;;;134.88;62.20;;;;;;;;;;10187428;28;20108;-63
2022/01/27 23:02:23;;;;;;;80.93;41.97;;;;;;;;;;10189872;28;20066;-63
2022/01/27 23:07:22;;;;;;;70.45;29.98;;;;;;;;;;10189796;28;20061;-64
2022/01/27 23:12:25;;;;;;;139.13;63.75;;;;;;;;;;10190243;28;20081;-63
2022/01/27 23:17:34;;;;;;;80.60;38.95;;;;;;;;;;10189773;28;20070;-63
2022/01/27 23:22:40;;;;;;;40.47;21.85;;;;;;;;;;10187736;28;20076;-62
2022/01/27 23:27:40;;;;;;;39.42;23.08;;;;;;;;;;10189672;28;20396;-64
2022/01/27 23:32:39;;;;;;;21.88;15.75;;;;;;;;;;10189186;28;20042;-63
2022/01/27 23:37:55;;;;;;;27.38;17.33;;;;;;;;;;10188197;28;20057;-63
2022/01/27 23:43:06;;;;;;;34.45;21.20;;;;;;;;;;10183071;28;20470;-63
2022/01/27 23:48:16;;;;;;;32.20;18.60;;;;;;;;;;10188775;28;20078;-64
2022/01/27 23:53:26;;;;;;;26.52;14.80;;;;;;;;;;10188108;28;20069;-63
2022/01/27 23:58:32;;;;;;;22.20;13.27;;;;;;;;;;10189641;28;20072;-64
